sensor_id;sensor_type;location;lat;lon;timestamp;P1;durP1;ratioP1;P2;durP2;ratioP2
20739;SDS011;10530;49.968;19.844;2023-02-12T00:02:21;33.10;;;12.57;;
20739;SDS011;10530;49.968;19.844;2023-02-12T00:07:24;22.70;;;8.52;;
20739;SDS011;10530;49.968;19.844;2023-02-12T00:12:27;35.33;;;12.47;;
20739;SDS011;10530;49.968;19.844;2023-02-12T00:17:29;30.48;;;11.25;;
20739;SDS011;10530;49.968;19.844;2023-02-12T00:22:32;31.17;;;12.30;;
20739;SDS011;10530;49.968;19.844;2023-02-12T00:27:35;36.15;;;13.63;;
20739;SDS011;10530;49.968;19.844;2023-02-12T00:32:38;33.92;;;12.75;;
20739;SDS011;10530;49.968;19.844;2023-02-12T00:37:41;30.37;;;11.10;;
20739;SDS011;10530;49.968;19.844;2023-02-12T00:42:44;34.15;;;11.70;;
20739;SDS011;10530;49.968;19.844;2023-02-12T00:47:47;26.20;;;11.00;;
20739;SDS011;10530;49.968;19.844;2023-02-12T00:52:50;24.33;;;8.95;;
20739;SDS011;10530;49.968;19.844;2023-02-12T00:57:53;30.42;;;11.88;;
20739;SDS011;10530;49.968;19.844;2023-02-12T01:02:56;22.33;;;8.77;;
20739;SDS011;10530;49.968;19.844;2023-02-12T01:07:59;11.88;;;4.63;;
20739;SDS011;10530;49.968;19.844;2023-02-12T01:13:03;19.67;;;7.82;;
20739;SDS011;10530;49.968;19.844;2023-02-12T01:18:06;27.70;;;11.05;;
20739;SDS011;10530;49.968;19.844;2023-02-12T01:23:09;26.40;;;10.48;;
20739;SDS011;10530;49.968;19.844;2023-02-12T01:28:12;27.90;;;11.27;;
20739;SDS011;10530;49.968;19.844;2023-02-12T01:33:15;28.05;;;10.55;;
20739;SDS011;10530;49.968;19.844;2023-02-12T01:38:18;12.60;;;4.65;;
20739;SDS011;10530;49.968;19.844;2023-02-12T01:43:21;25.73;;;10.52;;
20739;SDS011;10530;49.968;19.844;2023-02-12T01:48:24;29.80;;;11.15;;
20739;SDS011;10530;49.968;19.844;2023-02-12T01:53:32;27.27;;;10.70;;
20739;SDS011;10530;49.968;19.844;2023-02-12T01:58:41;27.40;;;10.75;;
20739;SDS011;10530;49.968;19.844;2023-02-12T02:03:47;27.50;;;9.43;;
20739;SDS011;10530;49.968;19.844;2023-02-12T02:08:52;11.00;;;4.75;;
20739;SDS011;10530;49.968;19.844;2023-02-12T02:13:56;26.73;;;11.18;;
20739;SDS011;10530;49.968;19.844;2023-02-12T02:20:05;31.90;;;11.40;;
20739;SDS011;10530;49.968;19.844;2023-02-12T02:25:00;32.42;;;11.90;;
20739;SDS011;10530;49.968;19.844;2023-02-12T02:30:20;11.40;;;4.68;;
20739;SDS011;10530;49.968;19.844;2023-02-12T02:46:31;25.13;;;10.40;;
20739;SDS011;10530;49.968;19.844;2023-02-12T02:52:00;26.23;;;9.38;;
20739;SDS011;10530;49.968;19.844;2023-02-12T02:57:13;34.80;;;11.57;;
20739;SDS011;10530;49.968;19.844;2023-02-12T03:02:22;28.38;;;11.68;;
20739;SDS011;10530;49.968;19.844;2023-02-12T03:07:46;31.35;;;11.35;;
20739;SDS011;10530;49.968;19.844;2023-02-12T03:13:00;27.17;;;10.50;;
20739;SDS011;10530;49.968;19.844;2023-02-12T03:18:20;34.42;;;11.60;;
20739;SDS011;10530;49.968;19.844;2023-02-12T03:23:35;25.33;;;8.82;;
20739;SDS011;10530;49.968;19.844;2023-02-12T03:28:43;33.60;;;11.25;;
20739;SDS011;10530;49.968;19.844;2023-02-12T03:39:19;28.80;;;11.20;;
20739;SDS011;10530;49.968;19.844;2023-02-12T03:44:52;31.90;;;10.95;;
20739;SDS011;10530;49.968;19.844;2023-02-12T03:50:06;28.60;;;11.10;;
20739;SDS011;10530;49.968;19.844;2023-02-12T03:55:12;31.77;;;11.27;;
20739;SDS011;10530;49.968;19.844;2023-02-12T04:00:17;28.58;;;10.82;;
20739;SDS011;10530;49.968;19.844;2023-02-12T04:05:22;28.93;;;10.37;;
20739;SDS011;10530;49.968;19.844;2023-02-12T04:15:56;26.67;;;10.48;;
20739;SDS011;10530;49.968;19.844;2023-02-12T04:42:10;28.17;;;10.70;;
20739;SDS011;10530;49.968;19.844;2023-02-12T04:47:13;29.20;;;10.25;;
20739;SDS011;10530;49.968;19.844;2023-02-12T04:52:17;30.45;;;10.30;;
20739;SDS011;10530;49.968;19.844;2023-02-12T04:57:20;29.17;;;10.50;;
20739;SDS011;10530;49.968;19.844;2023-02-12T05:02:23;31.15;;;10.55;;
20739;SDS011;10530;49.968;19.844;2023-02-12T05:07:25;32.05;;;11.00;;
20739;SDS011;10530;49.968;19.844;2023-02-12T05:12:28;37.00;;;11.77;;
20739;SDS011;10530;49.968;19.844;2023-02-12T05:17:31;31.98;;;11.18;;
20739;SDS011;10530;49.968;19.844;2023-02-12T05:22:34;34.37;;;12.03;;
20739;SDS011;10530;49.968;19.844;2023-02-12T05:27:37;41.58;;;14.27;;
20739;SDS011;10530;49.968;19.844;2023-02-12T05:32:40;33.22;;;12.20;;
20739;SDS011;10530;49.968;19.844;2023-02-12T05:37:42;35.67;;;12.55;;
20739;SDS011;10530;49.968;19.844;2023-02-12T05:42:45;38.72;;;13.02;;
20739;SDS011;10530;49.968;19.844;2023-02-12T05:47:48;35.87;;;12.03;;
20739;SDS011;10530;49.968;19.844;2023-02-12T05:52:51;47.60;;;13.70;;
20739;SDS011;10530;49.968;19.844;2023-02-12T05:57:54;38.38;;;12.73;;
20739;SDS011;10530;49.968;19.844;2023-02-12T06:02:57;44.13;;;12.57;;
20739;SDS011;10530;49.968;19.844;2023-02-12T06:07:59;34.28;;;11.45;;
20739;SDS011;10530;49.968;19.844;2023-02-12T06:13:02;32.83;;;11.57;;
20739;SDS011;10530;49.968;19.844;2023-02-12T06:18:05;19.65;;;8.57;;
20739;SDS011;10530;49.968;19.844;2023-02-12T06:23:08;22.15;;;7.10;;
20739;SDS011;10530;49.968;19.844;2023-02-12T06:28:11;16.48;;;5.93;;
20739;SDS011;10530;49.968;19.844;2023-02-12T06:33:14;16.70;;;4.95;;
20739;SDS011;10530;49.968;19.844;2023-02-12T06:38:17;13.90;;;4.43;;
20739;SDS011;10530;49.968;19.844;2023-02-12T06:43:20;10.63;;;4.13;;
20739;SDS011;10530;49.968;19.844;2023-02-12T06:48:23;9.77;;;3.97;;
20739;SDS011;10530;49.968;19.844;2023-02-12T06:53:26;14.98;;;4.18;;
20739;SDS011;10530;49.968;19.844;2023-02-12T06:58:29;13.60;;;4.43;;
20739;SDS011;10530;49.968;19.844;2023-02-12T07:03:32;12.77;;;4.47;;
20739;SDS011;10530;49.968;19.844;2023-02-12T07:08:35;16.35;;;4.35;;
20739;SDS011;10530;49.968;19.844;2023-02-12T07:13:41;11.55;;;3.72;;
20739;SDS011;10530;49.968;19.844;2023-02-12T07:18:44;12.10;;;4.32;;
20739;SDS011;10530;49.968;19.844;2023-02-12T07:23:48;12.15;;;3.78;;
20739;SDS011;10530;49.968;19.844;2023-02-12T07:28:52;11.57;;;4.70;;
20739;SDS011;10530;49.968;19.844;2023-02-12T07:33:56;12.70;;;4.35;;
20739;SDS011;10530;49.968;19.844;2023-02-12T07:39:00;13.23;;;5.25;;
20739;SDS011;10530;49.968;19.844;2023-02-12T07:44:05;15.30;;;4.43;;
20739;SDS011;10530;49.968;19.844;2023-02-12T07:49:12;8.90;;;3.72;;
20739;SDS011;10530;49.968;19.844;2023-02-12T07:54:16;11.97;;;4.20;;
20739;SDS011;10530;49.968;19.844;2023-02-12T07:59:19;9.63;;;3.40;;
20739;SDS011;10530;49.968;19.844;2023-02-12T08:04:23;9.77;;;3.40;;
20739;SDS011;10530;49.968;19.844;2023-02-12T08:09:27;10.48;;;3.85;;
20739;SDS011;10530;49.968;19.844;2023-02-12T08:14:32;13.60;;;4.18;;
20739;SDS011;10530;49.968;19.844;2023-02-12T08:19:34;9.40;;;3.60;;
20739;SDS011;10530;49.968;19.844;2023-02-12T08:24:37;8.60;;;2.72;;
20739;SDS011;10530;49.968;19.844;2023-02-12T08:29:40;11.20;;;3.20;;
20739;SDS011;10530;49.968;19.844;2023-02-12T08:34:43;6.80;;;2.17;;
20739;SDS011;10530;49.968;19.844;2023-02-12T08:39:47;4.13;;;2.03;;
20739;SDS011;10530;49.968;19.844;2023-02-12T08:44:50;7.37;;;2.23;;
20739;SDS011;10530;49.968;19.844;2023-02-12T08:49:53;9.65;;;2.72;;
20739;SDS011;10530;49.968;19.844;2023-02-12T08:54:56;10.25;;;3.47;;
20739;SDS011;10530;49.968;19.844;2023-02-12T09:00:02;7.43;;;2.65;;
20739;SDS011;10530;49.968;19.844;2023-02-12T09:05:06;8.32;;;2.50;;
20739;SDS011;10530;49.968;19.844;2023-02-12T09:10:09;7.53;;;2.30;;
20739;SDS011;10530;49.968;19.844;2023-02-12T09:15:12;6.97;;;2.53;;
20739;SDS011;10530;49.968;19.844;2023-02-12T09:20:16;9.45;;;2.47;;
20739;SDS011;10530;49.968;19.844;2023-02-12T09:25:19;5.88;;;2.50;;
20739;SDS011;10530;49.968;19.844;2023-02-12T09:30:22;8.88;;;2.53;;
20739;SDS011;10530;49.968;19.844;2023-02-12T09:35:25;9.37;;;3.30;;
20739;SDS011;10530;49.968;19.844;2023-02-12T09:46:09;9.57;;;2.50;;
20739;SDS011;10530;49.968;19.844;2023-02-12T09:51:20;6.32;;;2.63;;
20739;SDS011;10530;49.968;19.844;2023-02-12T09:56:24;7.80;;;3.17;;
20739;SDS011;10530;49.968;19.844;2023-02-12T10:01:29;7.23;;;3.30;;
20739;SDS011;10530;49.968;19.844;2023-02-12T10:06:34;6.95;;;2.45;;
20739;SDS011;10530;49.968;19.844;2023-02-12T10:17:12;7.05;;;2.85;;
20739;SDS011;10530;49.968;19.844;2023-02-12T10:22:25;7.05;;;2.67;;
20739;SDS011;10530;49.968;19.844;2023-02-12T10:27:59;7.03;;;3.57;;
20739;SDS011;10530;49.968;19.844;2023-02-12T10:33:09;8.95;;;2.85;;
20739;SDS011;10530;49.968;19.844;2023-02-12T10:38:36;7.57;;;2.75;;
20739;SDS011;10530;49.968;19.844;2023-02-12T10:43:43;7.65;;;2.40;;
20739;SDS011;10530;49.968;19.844;2023-02-12T10:48:47;8.32;;;3.65;;
20739;SDS011;10530;49.968;19.844;2023-02-12T10:53:55;10.40;;;3.80;;
20739;SDS011;10530;49.968;19.844;2023-02-12T10:58:58;8.85;;;3.38;;
20739;SDS011;10530;49.968;19.844;2023-02-12T11:09:29;7.93;;;3.63;;
20739;SDS011;10530;49.968;19.844;2023-02-12T11:14:36;6.07;;;2.85;;
20739;SDS011;10530;49.968;19.844;2023-02-12T11:19:39;7.73;;;3.40;;
20739;SDS011;10530;49.968;19.844;2023-02-12T11:24:42;7.93;;;3.60;;
20739;SDS011;10530;49.968;19.844;2023-02-12T11:29:46;12.52;;;5.10;;
20739;SDS011;10530;49.968;19.844;2023-02-12T11:40:36;9.73;;;4.47;;
20739;SDS011;10530;49.968;19.844;2023-02-12T11:45:43;8.83;;;4.50;;
20739;SDS011;10530;49.968;19.844;2023-02-12T11:50:50;8.55;;;3.65;;
20739;SDS011;10530;49.968;19.844;2023-02-12T11:56:05;9.15;;;3.85;;
20739;SDS011;10530;49.968;19.844;2023-02-12T12:11:46;11.97;;;4.53;;
20739;SDS011;10530;49.968;19.844;2023-02-12T12:17:10;11.38;;;4.55;;
20739;SDS011;10530;49.968;19.844;2023-02-12T12:22:49;12.75;;;5.80;;
20739;SDS011;10530;49.968;19.844;2023-02-12T12:33:52;9.48;;;4.68;;
20739;SDS011;10530;49.968;19.844;2023-02-12T12:44:32;8.90;;;4.07;;
20739;SDS011;10530;49.968;19.844;2023-02-12T12:50:16;10.15;;;4.95;;
20739;SDS011;10530;49.968;19.844;2023-02-12T13:01:15;10.23;;;4.82;;
20739;SDS011;10530;49.968;19.844;2023-02-12T13:06:35;10.07;;;4.97;;
20739;SDS011;10530;49.968;19.844;2023-02-12T13:27:58;13.05;;;5.43;;
20739;SDS011;10530;49.968;19.844;2023-02-12T13:33:16;12.43;;;5.07;;
20739;SDS011;10530;49.968;19.844;2023-02-12T13:38:34;14.63;;;5.70;;
20739;SDS011;10530;49.968;19.844;2023-02-12T13:49:13;13.75;;;5.47;;
20739;SDS011;10530;49.968;19.844;2023-02-12T13:59:58;13.10;;;4.70;;
20739;SDS011;10530;49.968;19.844;2023-02-12T14:15:34;8.77;;;3.10;;
20739;SDS011;10530;49.968;19.844;2023-02-12T14:20:39;9.63;;;4.03;;
20739;SDS011;10530;49.968;19.844;2023-02-12T14:25:44;14.57;;;4.97;;
20739;SDS011;10530;49.968;19.844;2023-02-12T14:31:31;15.98;;;5.75;;
20739;SDS011;10530;49.968;19.844;2023-02-12T14:41:37;13.32;;;4.90;;
20739;SDS011;10530;49.968;19.844;2023-02-12T14:46:49;14.77;;;4.88;;
20739;SDS011;10530;49.968;19.844;2023-02-12T14:52:04;12.07;;;4.60;;
20739;SDS011;10530;49.968;19.844;2023-02-12T14:57:12;7.32;;;3.22;;
20739;SDS011;10530;49.968;19.844;2023-02-12T15:02:28;10.63;;;3.67;;
20739;SDS011;10530;49.968;19.844;2023-02-12T15:07:39;11.40;;;4.18;;
20739;SDS011;10530;49.968;19.844;2023-02-12T15:12:46;15.27;;;4.78;;
20739;SDS011;10530;49.968;19.844;2023-02-12T15:18:14;10.40;;;4.67;;
20739;SDS011;10530;49.968;19.844;2023-02-12T15:23:35;11.48;;;4.45;;
20739;SDS011;10530;49.968;19.844;2023-02-12T15:28:41;11.00;;;3.88;;
20739;SDS011;10530;49.968;19.844;2023-02-12T15:33:48;9.57;;;3.80;;
20739;SDS011;10530;49.968;19.844;2023-02-12T15:38:54;10.25;;;3.78;;
20739;SDS011;10530;49.968;19.844;2023-02-12T15:44:16;10.13;;;3.93;;
20739;SDS011;10530;49.968;19.844;2023-02-12T15:49:25;8.43;;;3.80;;
20739;SDS011;10530;49.968;19.844;2023-02-12T15:54:38;14.07;;;4.68;;
20739;SDS011;10530;49.968;19.844;2023-02-12T15:59:41;11.00;;;3.70;;
20739;SDS011;10530;49.968;19.844;2023-02-12T16:04:44;10.55;;;3.78;;
20739;SDS011;10530;49.968;19.844;2023-02-12T16:09:48;9.03;;;3.30;;
20739;SDS011;10530;49.968;19.844;2023-02-12T16:14:55;12.02;;;3.83;;
20739;SDS011;10530;49.968;19.844;2023-02-12T16:20:04;12.10;;;4.63;;
20739;SDS011;10530;49.968;19.844;2023-02-12T16:25:17;11.18;;;4.25;;
20739;SDS011;10530;49.968;19.844;2023-02-12T16:30:30;12.20;;;4.50;;
20739;SDS011;10530;49.968;19.844;2023-02-12T16:35:35;14.33;;;5.70;;
20739;SDS011;10530;49.968;19.844;2023-02-12T16:40:38;15.32;;;5.15;;
20739;SDS011;10530;49.968;19.844;2023-02-12T16:45:41;14.55;;;6.88;;
20739;SDS011;10530;49.968;19.844;2023-02-12T16:50:46;17.33;;;6.22;;
20739;SDS011;10530;49.968;19.844;2023-02-12T16:55:51;21.00;;;7.18;;
20739;SDS011;10530;49.968;19.844;2023-02-12T17:00:54;22.07;;;8.00;;
20739;SDS011;10530;49.968;19.844;2023-02-12T17:05:58;15.80;;;5.43;;
20739;SDS011;10530;49.968;19.844;2023-02-12T17:11:02;15.00;;;5.05;;
20739;SDS011;10530;49.968;19.844;2023-02-12T17:16:05;11.77;;;4.78;;
20739;SDS011;10530;49.968;19.844;2023-02-12T17:21:13;11.90;;;4.70;;
20739;SDS011;10530;49.968;19.844;2023-02-12T17:26:22;28.50;;;8.93;;
20739;SDS011;10530;49.968;19.844;2023-02-12T17:31:25;21.90;;;8.07;;
20739;SDS011;10530;49.968;19.844;2023-02-12T17:36:30;19.77;;;7.40;;
20739;SDS011;10530;49.968;19.844;2023-02-12T17:41:34;18.00;;;6.10;;
20739;SDS011;10530;49.968;19.844;2023-02-12T17:46:37;25.40;;;7.35;;
20739;SDS011;10530;49.968;19.844;2023-02-12T17:51:42;21.17;;;7.90;;
20739;SDS011;10530;49.968;19.844;2023-02-12T17:56:45;23.27;;;8.20;;
20739;SDS011;10530;49.968;19.844;2023-02-12T18:01:47;15.85;;;6.40;;
20739;SDS011;10530;49.968;19.844;2023-02-12T18:06:50;20.90;;;5.75;;
20739;SDS011;10530;49.968;19.844;2023-02-12T18:11:53;16.75;;;6.43;;
20739;SDS011;10530;49.968;19.844;2023-02-12T18:16:56;21.27;;;5.87;;
20739;SDS011;10530;49.968;19.844;2023-02-12T18:21:59;20.25;;;6.93;;
20739;SDS011;10530;49.968;19.844;2023-02-12T18:27:03;18.75;;;4.70;;
20739;SDS011;10530;49.968;19.844;2023-02-12T18:32:06;20.08;;;6.80;;
20739;SDS011;10530;49.968;19.844;2023-02-12T18:37:10;17.02;;;7.63;;
20739;SDS011;10530;49.968;19.844;2023-02-12T18:42:14;15.17;;;5.43;;
20739;SDS011;10530;49.968;19.844;2023-02-12T18:47:17;15.00;;;5.68;;
20739;SDS011;10530;49.968;19.844;2023-02-12T18:52:20;18.52;;;7.10;;
20739;SDS011;10530;49.968;19.844;2023-02-12T18:57:23;8.57;;;4.75;;
20739;SDS011;10530;49.968;19.844;2023-02-12T19:02:26;15.65;;;6.53;;
20739;SDS011;10530;49.968;19.844;2023-02-12T19:07:30;19.20;;;7.30;;
20739;SDS011;10530;49.968;19.844;2023-02-12T19:12:32;25.40;;;7.78;;
20739;SDS011;10530;49.968;19.844;2023-02-12T19:17:35;18.85;;;7.25;;
20739;SDS011;10530;49.968;19.844;2023-02-12T19:22:38;29.25;;;8.25;;
20739;SDS011;10530;49.968;19.844;2023-02-12T19:27:42;26.05;;;9.45;;
20739;SDS011;10530;49.968;19.844;2023-02-12T19:32:45;22.20;;;8.53;;
20739;SDS011;10530;49.968;19.844;2023-02-12T19:37:48;20.98;;;8.25;;
20739;SDS011;10530;49.968;19.844;2023-02-12T19:42:51;10.50;;;4.78;;
20739;SDS011;10530;49.968;19.844;2023-02-12T19:47:53;21.73;;;7.82;;
20739;SDS011;10530;49.968;19.844;2023-02-12T19:52:56;25.23;;;8.63;;
20739;SDS011;10530;49.968;19.844;2023-02-12T19:57:59;24.40;;;8.87;;
20739;SDS011;10530;49.968;19.844;2023-02-12T20:03:02;16.60;;;7.28;;
20739;SDS011;10530;49.968;19.844;2023-02-12T20:08:05;20.00;;;7.43;;
20739;SDS011;10530;49.968;19.844;2023-02-12T20:13:08;18.10;;;7.97;;
20739;SDS011;10530;49.968;19.844;2023-02-12T20:18:11;18.73;;;7.90;;
20739;SDS011;10530;49.968;19.844;2023-02-12T20:23:14;23.10;;;7.40;;
20739;SDS011;10530;49.968;19.844;2023-02-12T20:28:17;20.17;;;7.10;;
20739;SDS011;10530;49.968;19.844;2023-02-12T20:33:20;20.08;;;7.13;;
20739;SDS011;10530;49.968;19.844;2023-02-12T20:38:23;22.02;;;7.80;;
20739;SDS011;10530;49.968;19.844;2023-02-12T20:43:27;27.58;;;9.32;;
20739;SDS011;10530;49.968;19.844;2023-02-12T20:48:30;23.93;;;9.33;;
20739;SDS011;10530;49.968;19.844;2023-02-12T20:53:34;23.73;;;8.40;;
20739;SDS011;10530;49.968;19.844;2023-02-12T20:58:37;19.83;;;7.10;;
20739;SDS011;10530;49.968;19.844;2023-02-12T21:03:42;23.15;;;7.63;;
20739;SDS011;10530;49.968;19.844;2023-02-12T21:08:46;23.63;;;7.68;;
20739;SDS011;10530;49.968;19.844;2023-02-12T21:13:50;19.07;;;8.33;;
20739;SDS011;10530;49.968;19.844;2023-02-12T21:19:03;20.67;;;6.97;;
20739;SDS011;10530;49.968;19.844;2023-02-12T21:24:07;22.15;;;7.65;;
20739;SDS011;10530;49.968;19.844;2023-02-12T21:29:13;23.75;;;8.25;;
20739;SDS011;10530;49.968;19.844;2023-02-12T21:34:17;16.30;;;7.57;;
20739;SDS011;10530;49.968;19.844;2023-02-12T21:39:25;21.27;;;8.37;;
20739;SDS011;10530;49.968;19.844;2023-02-12T21:44:30;18.80;;;7.63;;
20739;SDS011;10530;49.968;19.844;2023-02-12T21:49:36;22.10;;;9.02;;
20739;SDS011;10530;49.968;19.844;2023-02-12T21:54:39;18.17;;;7.53;;
20739;SDS011;10530;49.968;19.844;2023-02-12T21:59:42;29.52;;;12.52;;
20739;SDS011;10530;49.968;19.844;2023-02-12T22:04:45;21.57;;;8.67;;
20739;SDS011;10530;49.968;19.844;2023-02-12T22:09:47;24.42;;;10.52;;
20739;SDS011;10530;49.968;19.844;2023-02-12T22:14:50;39.58;;;13.63;;
20739;SDS011;10530;49.968;19.844;2023-02-12T22:19:53;36.75;;;15.00;;
20739;SDS011;10530;49.968;19.844;2023-02-12T22:24:56;42.45;;;19.60;;
20739;SDS011;10530;49.968;19.844;2023-02-12T22:29:59;38.17;;;15.57;;
20739;SDS011;10530;49.968;19.844;2023-02-12T22:35:02;40.28;;;14.65;;
20739;SDS011;10530;49.968;19.844;2023-02-12T22:40:06;44.30;;;17.92;;
20739;SDS011;10530;49.968;19.844;2023-02-12T22:45:11;37.10;;;15.40;;
20739;SDS011;10530;49.968;19.844;2023-02-12T22:50:13;33.50;;;13.63;;
20739;SDS011;10530;49.968;19.844;2023-02-12T22:55:16;52.60;;;17.40;;
20739;SDS011;10530;49.968;19.844;2023-02-12T23:00:20;39.50;;;16.38;;
20739;SDS011;10530;49.968;19.844;2023-02-12T23:05:23;45.13;;;17.50;;
20739;SDS011;10530;49.968;19.844;2023-02-12T23:10:26;57.50;;;18.67;;
20739;SDS011;10530;49.968;19.844;2023-02-12T23:15:29;55.42;;;19.83;;
20739;SDS011;10530;49.968;19.844;2023-02-12T23:20:31;49.10;;;22.03;;
20739;SDS011;10530;49.968;19.844;2023-02-12T23:25:34;61.55;;;21.48;;
20739;SDS011;10530;49.968;19.844;2023-02-12T23:30:37;51.10;;;21.17;;
20739;SDS011;10530;49.968;19.844;2023-02-12T23:35:40;59.72;;;19.90;;
20739;SDS011;10530;49.968;19.844;2023-02-12T23:40:43;52.22;;;19.38;;
20739;SDS011;10530;49.968;19.844;2023-02-12T23:45:47;55.73;;;19.80;;
20739;SDS011;10530;49.968;19.844;2023-02-12T23:50:50;52.15;;;18.60;;
20739;SDS011;10530;49.968;19.844;2023-02-12T23:55:53;52.80;;;19.95;;
